createdAt,value
2018-07-13T00:00:23.574Z,22.42
2018-07-13T00:01:04.988Z,22.51
2018-07-13T00:01:45.522Z,22.57
2018-07-13T00:02:26.046Z,22.54
2018-07-13T00:03:06.585Z,22.52
2018-07-13T00:03:47.108Z,22.6
2018-07-13T00:04:27.639Z,22.64
2018-07-13T00:05:08.159Z,22.6
2018-07-13T00:05:48.702Z,22.58
2018-07-13T00:06:29.226Z,22.54
2018-07-13T00:07:09.743Z,22.57
2018-07-13T00:07:50.256Z,22.54
2018-07-13T00:08:30.789Z,22.57
2018-07-13T00:09:11.333Z,22.47
2018-07-13T00:09:51.844Z,22.57
2018-07-13T00:10:32.365Z,22.55
2018-07-13T00:11:12.885Z,22.55
2018-07-13T00:11:53.407Z,22.49
2018-07-13T00:12:33.937Z,22.49
2018-07-13T00:13:14.446Z,22.54
2018-07-13T00:13:54.988Z,22.54
2018-07-13T00:14:35.503Z,22.52
2018-07-13T00:15:16.052Z,22.57
2018-07-13T00:15:56.546Z,22.52
2018-07-13T00:16:37.079Z,22.3
2018-07-13T00:17:18.370Z,22.4
2018-07-13T00:17:58.131Z,22.35
2018-07-13T00:18:38.667Z,22.42
2018-07-13T00:19:19.192Z,22.51
2018-07-13T00:19:59.751Z,22.54
2018-07-13T00:20:40.308Z,22.39
2018-07-13T00:21:20.909Z,22.31
2018-07-13T00:22:01.523Z,22.49
2018-07-13T00:22:42.180Z,22.49
2018-07-13T00:23:22.938Z,22.35
2018-07-13T00:24:03.498Z,22.46
2018-07-13T00:24:44.202Z,22.39
2018-07-13T00:25:24.732Z,22.35
2018-07-13T00:26:05.448Z,22.42
2018-07-13T00:26:46.487Z,22.45
2018-07-13T00:27:27.402Z,22.33
2018-07-13T00:28:07.825Z,22.46
2018-07-13T00:28:48.354Z,22.39
2018-07-13T00:29:28.882Z,22.47
2018-07-13T00:30:09.387Z,22.4
2018-07-13T00:30:49.918Z,22.31
2018-07-13T00:31:30.436Z,22.36
2018-07-13T00:32:10.956Z,22.35
2018-07-13T00:32:51.493Z,22.28
2018-07-13T00:33:32.028Z,22.25
2018-07-13T00:34:12.529Z,22.27
2018-07-13T00:34:53.062Z,22.25
2018-07-13T00:35:33.587Z,22.33
2018-07-13T00:36:14.103Z,22.35
2018-07-13T00:36:54.636Z,22.31
2018-07-13T00:37:35.163Z,22.3
2018-07-13T00:38:15.687Z,22.27
2018-07-13T00:38:56.197Z,22.31
2018-07-13T00:39:36.735Z,22.3
2018-07-13T00:40:17.267Z,22.33
2018-07-13T00:40:57.810Z,22.28
2018-07-13T00:41:38.333Z,22.33
2018-07-13T00:42:18.876Z,22.28
2018-07-13T00:42:59.410Z,22.28
2018-07-13T00:43:39.934Z,22.28
2018-07-13T00:44:20.455Z,22.3
2018-07-13T00:45:00.998Z,22.15
2018-07-13T00:45:41.537Z,22.35
2018-07-13T00:46:22.078Z,22.3
2018-07-13T00:47:02.576Z,22.28
2018-07-13T00:47:43.102Z,22.17
2018-07-13T00:48:23.625Z,22.18
2018-07-13T00:49:04.171Z,22.28
2018-07-13T00:49:44.687Z,22.33
2018-07-13T00:50:25.197Z,22.33
2018-07-13T00:51:05.724Z,22.27
2018-07-13T00:51:46.244Z,22.33
2018-07-13T00:52:26.802Z,22.46
2018-07-13T00:53:07.317Z,22.43
2018-07-13T00:53:47.848Z,22.28
2018-07-13T00:54:28.370Z,22.24
2018-07-13T00:55:08.898Z,22.2
2018-07-13T00:55:49.424Z,22.1
2018-07-13T00:56:29.948Z,22.1
2018-07-13T00:57:10.469Z,22.14
2018-07-13T00:57:51.008Z,22.12
2018-07-13T00:58:31.522Z,22.06
2018-07-13T00:59:12.029Z,22
2018-07-13T00:59:52.554Z,22.03
2018-07-13T01:00:33.075Z,22.07
2018-07-13T01:01:13.614Z,22.2
2018-07-13T01:01:54.131Z,22.1
2018-07-13T01:02:34.646Z,22.06
2018-07-13T01:03:15.164Z,22.15
2018-07-13T01:03:55.680Z,22.09
2018-07-13T01:04:36.185Z,22.17
2018-07-13T01:05:16.729Z,22.17
2018-07-13T01:05:57.255Z,22.18
2018-07-13T01:06:37.795Z,22.22
2018-07-13T01:07:18.313Z,22.22
2018-07-13T01:07:58.845Z,22.12
2018-07-13T01:08:39.371Z,22.06
2018-07-13T01:09:19.895Z,22.09
2018-07-13T01:10:00.414Z,22.12
2018-07-13T01:10:40.928Z,22.06
2018-07-13T01:11:21.447Z,22.14
2018-07-13T01:12:01.975Z,22.18
2018-07-13T01:12:42.489Z,22.27
2018-07-13T01:13:23.010Z,22.17
2018-07-13T01:14:03.548Z,22.15
2018-07-13T01:14:44.067Z,22.09
2018-07-13T01:15:24.580Z,21.94
2018-07-13T01:16:05.111Z,22
2018-07-13T01:16:45.621Z,21.94
2018-07-13T01:17:26.150Z,21.99
2018-07-13T01:18:06.675Z,21.94
2018-07-13T01:18:47.209Z,21.99
2018-07-13T01:19:27.727Z,22.05
2018-07-13T01:20:08.239Z,22.02
2018-07-13T01:20:48.744Z,22.02
2018-07-13T01:21:29.266Z,22.12
2018-07-13T01:22:09.785Z,21.99
2018-07-13T01:22:50.320Z,21.9
2018-07-13T01:23:30.830Z,21.91
2018-07-13T01:24:11.362Z,21.82
2018-07-13T01:24:51.890Z,21.94
2018-07-13T01:25:32.405Z,22.02
2018-07-13T01:26:12.926Z,21.96
2018-07-13T01:26:53.446Z,22.03
2018-07-13T01:27:33.972Z,22.02
2018-07-13T01:28:14.498Z,22
2018-07-13T01:28:55.037Z,22.02
2018-07-13T01:29:35.545Z,22.05
2018-07-13T01:30:16.076Z,22.02
2018-07-13T01:30:56.597Z,21.98
2018-07-13T01:31:37.116Z,21.98
2018-07-13T01:32:17.635Z,21.99
2018-07-13T01:32:58.162Z,21.99
2018-07-13T01:33:38.694Z,22.05
2018-07-13T01:34:19.203Z,22.09
2018-07-13T01:34:59.737Z,22.06
2018-07-13T01:35:40.319Z,22.06
2018-07-13T01:36:20.783Z,21.99
2018-07-13T01:37:01.295Z,21.91
2018-07-13T01:37:41.812Z,21.99
2018-07-13T01:38:22.336Z,21.92
2018-07-13T01:39:02.857Z,21.99
2018-07-13T01:39:43.377Z,22.03
2018-07-13T01:40:23.897Z,22.02
2018-07-13T01:41:04.431Z,22
2018-07-13T01:41:44.957Z,21.99
2018-07-13T01:42:25.488Z,22.03
2018-07-13T01:43:05.996Z,21.99
2018-07-13T01:43:46.523Z,21.99
2018-07-13T01:44:27.038Z,21.94
2018-07-13T01:45:07.559Z,21.94
2018-07-13T01:45:48.077Z,21.99
2018-07-13T01:46:28.606Z,21.99
2018-07-13T01:47:09.126Z,22.03
2018-07-13T01:47:49.658Z,22.06
2018-07-13T01:48:30.168Z,22.09
2018-07-13T01:49:10.686Z,22.07
2018-07-13T01:49:51.210Z,22
2018-07-13T01:50:31.742Z,22
2018-07-13T01:51:12.273Z,21.94
2018-07-13T01:51:52.784Z,21.94
2018-07-13T01:52:33.311Z,21.94
2018-07-13T01:53:13.836Z,21.98
2018-07-13T01:53:54.359Z,21.98
2018-07-13T01:54:34.884Z,21.94
2018-07-13T01:55:15.916Z,21.96
2018-07-13T01:55:55.915Z,21.92
2018-07-13T01:56:36.440Z,21.92
2018-07-13T01:57:16.963Z,21.92
2018-07-13T01:57:57.530Z,21.84
2018-07-13T01:58:38.787Z,21.83
2018-07-13T01:59:19.303Z,21.84
2018-07-13T01:59:59.818Z,21.75
2018-07-13T02:00:40.360Z,21.79
2018-07-13T02:01:20.890Z,21.74
2018-07-13T02:02:01.404Z,21.82
2018-07-13T02:02:41.927Z,21.79
2018-07-13T02:03:22.445Z,21.72
2018-07-13T02:04:02.972Z,21.71
2018-07-13T02:04:43.492Z,21.8
2018-07-13T02:05:24.011Z,21.74
2018-07-13T02:06:04.543Z,21.82
2018-07-13T02:06:45.050Z,21.79
2018-07-13T02:07:25.578Z,21.91
2018-07-13T02:08:06.213Z,21.86
2018-07-13T02:08:46.720Z,21.84
2018-07-13T02:09:27.245Z,21.86
2018-07-13T02:10:07.773Z,21.77
2018-07-13T02:10:48.297Z,21.86
2018-07-13T02:11:28.824Z,21.84
2018-07-13T02:12:09.371Z,21.83
2018-07-13T02:12:49.913Z,21.83
2018-07-13T02:13:30.450Z,21.83
2018-07-13T02:14:10.972Z,21.86
2018-07-13T02:14:51.496Z,21.84
2018-07-13T02:15:32.014Z,21.8
2018-07-13T02:16:12.550Z,21.77
2018-07-13T02:16:53.097Z,21.79
2018-07-13T02:17:33.621Z,21.74
2018-07-13T02:18:14.130Z,21.74
2018-07-13T02:18:54.660Z,21.77
2018-07-13T02:19:35.189Z,21.72
2018-07-13T02:20:15.718Z,21.84
2018-07-13T02:20:56.260Z,21.83
2018-07-13T02:21:36.774Z,21.86
2018-07-13T02:22:17.288Z,21.82
2018-07-13T02:22:57.815Z,21.72
2018-07-13T02:23:38.344Z,21.72
2018-07-13T02:24:18.854Z,21.72
2018-07-13T02:24:59.374Z,21.79
2018-07-13T02:25:39.901Z,21.79
2018-07-13T02:26:20.431Z,21.82
2018-07-13T02:27:00.961Z,21.8
2018-07-13T02:27:41.491Z,21.74
2018-07-13T02:28:21.999Z,21.75
2018-07-13T02:29:02.526Z,21.84
2018-07-13T02:29:43.068Z,21.83
2018-07-13T02:30:23.569Z,21.91
2018-07-13T02:31:04.111Z,21.79
2018-07-13T02:31:44.648Z,21.88
2018-07-13T02:32:25.173Z,21.84
2018-07-13T02:33:05.711Z,21.8
2018-07-13T02:33:46.247Z,21.92
2018-07-13T02:34:26.749Z,21.77
2018-07-13T02:35:07.263Z,21.79
2018-07-13T02:35:47.787Z,21.92
2018-07-13T02:36:28.307Z,21.98
2018-07-13T02:37:08.835Z,21.9
2018-07-13T02:37:49.368Z,21.94
2018-07-13T02:38:29.907Z,21.94
2018-07-13T02:39:10.473Z,21.96
2018-07-13T02:39:50.938Z,21.92
2018-07-13T02:40:31.452Z,21.9
2018-07-13T02:41:11.980Z,21.83
2018-07-13T02:41:52.514Z,21.9
2018-07-13T02:42:33.033Z,21.84
2018-07-13T02:43:13.553Z,21.77
2018-07-13T02:43:54.077Z,21.74
2018-07-13T02:44:34.601Z,21.75
2018-07-13T02:45:15.119Z,21.69
2018-07-13T02:45:55.638Z,21.8
2018-07-13T02:46:36.164Z,21.88
2018-07-13T02:47:16.744Z,21.82
2018-07-13T02:47:57.228Z,21.72
2018-07-13T02:48:37.792Z,21.86
2018-07-13T02:49:18.321Z,21.84
2018-07-13T02:49:58.858Z,21.84
2018-07-13T02:50:39.384Z,21.69
2018-07-13T02:51:19.908Z,21.74
2018-07-13T02:52:00.404Z,21.86
2018-07-13T02:52:40.917Z,21.74
2018-07-13T02:53:21.460Z,21.71
2018-07-13T02:54:01.973Z,21.75
2018-07-13T02:54:42.492Z,21.72
2018-07-13T02:55:23.014Z,21.75
2018-07-13T02:56:03.543Z,21.77
2018-07-13T02:56:44.068Z,21.65
2018-07-13T02:57:24.587Z,21.65
2018-07-13T02:58:05.112Z,21.62
2018-07-13T02:58:45.638Z,21.47
2018-07-13T02:59:26.202Z,21.47
2018-07-13T03:00:06.717Z,21.5
2018-07-13T03:00:47.249Z,21.54
2018-07-13T03:01:27.767Z,21.5
2018-07-13T03:02:08.299Z,21.5
2018-07-13T03:02:48.804Z,21.65
2018-07-13T03:03:29.337Z,21.59
2018-07-13T03:04:09.862Z,21.59
2018-07-13T03:04:50.428Z,21.54
2018-07-13T03:05:30.941Z,21.53
2018-07-13T03:06:11.475Z,21.5
2018-07-13T03:06:51.997Z,21.47
2018-07-13T03:07:32.518Z,21.46
2018-07-13T03:08:13.047Z,21.44
2018-07-13T03:08:53.567Z,21.47
2018-07-13T03:09:34.086Z,21.44
2018-07-13T03:10:14.626Z,21.32
2018-07-13T03:10:55.144Z,21.34
2018-07-13T03:11:35.679Z,21.37
2018-07-13T03:12:16.195Z,21.42
2018-07-13T03:12:56.745Z,21.42
2018-07-13T03:13:37.270Z,21.27
2018-07-13T03:14:17.772Z,21.28
2018-07-13T03:14:58.302Z,21.32
2018-07-13T03:15:38.807Z,21.35
2018-07-13T03:16:19.334Z,21.35
2018-07-13T03:16:59.854Z,21.43
2018-07-13T03:17:40.387Z,21.5
2018-07-13T03:18:20.934Z,21.49
2018-07-13T03:19:01.468Z,21.42
2018-07-13T03:19:41.987Z,21.37
2018-07-13T03:20:22.506Z,21.31
2018-07-13T03:21:03.067Z,21.46
2018-07-13T03:21:43.592Z,21.43
2018-07-13T03:22:24.126Z,21.46
2018-07-13T03:23:04.665Z,21.37
2018-07-13T03:23:45.178Z,21.49
2018-07-13T03:24:25.689Z,21.44
2018-07-13T03:25:06.734Z,21.58
2018-07-13T03:25:47.268Z,21.38
2018-07-13T03:26:27.816Z,21.34
2018-07-13T03:27:08.337Z,21.35
2018-07-13T03:27:48.877Z,21.32
2018-07-13T03:28:29.417Z,21.38
2018-07-13T03:29:09.950Z,21.4
2018-07-13T03:29:50.468Z,21.38
2018-07-13T03:30:30.990Z,21.44
2018-07-13T03:31:11.507Z,21.31
2018-07-13T03:31:52.043Z,21.31
2018-07-13T03:32:32.567Z,21.34
2018-07-13T03:33:13.097Z,21.31
2018-07-13T03:33:53.640Z,21.31
2018-07-13T03:34:34.176Z,21.28
2018-07-13T03:35:14.706Z,21.29
2018-07-13T03:35:55.231Z,21.24
2018-07-13T03:36:35.744Z,21.22
2018-07-13T03:37:16.275Z,21.29
2018-07-13T03:37:56.788Z,21.31
2018-07-13T03:38:37.309Z,21.32
2018-07-13T03:39:17.833Z,21.37
2018-07-13T03:39:58.348Z,21.34
2018-07-13T03:40:38.873Z,21.43
2018-07-13T03:41:19.397Z,21.31
2018-07-13T03:41:59.930Z,21.46
2018-07-13T03:42:40.458Z,21.38
2018-07-13T03:43:20.983Z,21.46
2018-07-13T03:44:01.512Z,21.52
2018-07-13T03:44:42.050Z,21.46
2018-07-13T03:45:22.577Z,21.4
2018-07-13T03:46:03.121Z,21.46
2018-07-13T03:46:43.664Z,21.47
2018-07-13T03:47:24.192Z,21.56
2018-07-13T03:48:04.735Z,21.62
2018-07-13T03:48:45.251Z,21.61
2018-07-13T03:49:25.781Z,21.52
2018-07-13T03:50:06.296Z,21.49
2018-07-13T03:50:46.814Z,21.49
2018-07-13T03:51:27.347Z,21.64
2018-07-13T03:52:07.876Z,21.59
2018-07-13T03:52:48.411Z,21.44
2018-07-13T03:53:28.929Z,21.61
2018-07-13T03:54:09.457Z,21.49
2018-07-13T03:54:49.993Z,21.5
2018-07-13T03:55:30.518Z,21.52
2018-07-13T03:56:11.023Z,21.53
2018-07-13T03:56:51.546Z,21.52
2018-07-13T03:57:32.087Z,21.46
2018-07-13T03:58:12.599Z,21.44
2018-07-13T03:58:53.130Z,21.5
2018-07-13T03:59:33.648Z,21.49
2018-07-13T04:00:14.183Z,21.47
2018-07-13T04:00:54.731Z,21.64
2018-07-13T04:01:35.231Z,21.54
2018-07-13T04:02:15.747Z,21.52
2018-07-13T04:02:56.308Z,21.52
2018-07-13T04:03:36.847Z,21.52
2018-07-13T04:04:17.383Z,21.59
2018-07-13T04:04:57.938Z,21.65
2018-07-13T04:05:38.461Z,21.64
2018-07-13T04:06:18.986Z,21.59
2018-07-13T04:06:59.548Z,21.67
2018-07-13T04:07:40.038Z,21.74
2018-07-13T04:08:20.578Z,21.67
2018-07-13T04:09:01.112Z,21.67
2018-07-13T04:09:41.630Z,21.58
2018-07-13T04:10:22.132Z,21.64
2018-07-13T04:11:02.659Z,21.62
2018-07-13T04:11:43.186Z,21.62
2018-07-13T04:12:23.711Z,21.65
2018-07-13T04:13:04.239Z,21.67
2018-07-13T04:13:44.784Z,21.69
2018-07-13T04:14:25.308Z,21.69
2018-07-13T04:15:05.841Z,21.82
2018-07-13T04:15:46.346Z,21.84
2018-07-13T04:16:26.865Z,21.72
2018-07-13T04:17:07.390Z,21.82
2018-07-13T04:17:47.905Z,21.8
2018-07-13T04:18:28.419Z,21.74
2018-07-13T04:19:08.949Z,21.82
2018-07-13T04:19:49.472Z,21.9
2018-07-13T04:20:29.998Z,21.86
2018-07-13T04:21:10.540Z,21.82
2018-07-13T04:21:51.067Z,21.9
2018-07-13T04:22:31.578Z,21.91
2018-07-13T04:23:12.101Z,21.86
2018-07-13T04:23:52.620Z,21.91
2018-07-13T04:24:33.152Z,21.99
2018-07-13T04:25:13.688Z,21.99
2018-07-13T04:25:54.219Z,21.94
2018-07-13T04:26:34.756Z,22.03
2018-07-13T04:27:15.300Z,22.03
2018-07-13T04:27:55.828Z,22.07
2018-07-13T04:28:36.380Z,22.03
2018-07-13T04:29:16.902Z,22
2018-07-13T04:29:57.446Z,22.07
2018-07-13T04:30:37.976Z,22.05
2018-07-13T04:31:18.493Z,22.14
2018-07-13T04:31:59.022Z,22.1
2018-07-13T04:32:39.545Z,22.15
2018-07-13T04:33:20.062Z,22.2
2018-07-13T04:34:00.602Z,22.22
2018-07-13T04:34:41.126Z,22.21
2018-07-13T04:35:21.649Z,22.22
2018-07-13T04:36:02.181Z,22.14
2018-07-13T04:36:42.707Z,22.2
2018-07-13T04:37:23.254Z,22.18
2018-07-13T04:38:03.783Z,22.2
2018-07-13T04:38:44.294Z,22.15
2018-07-13T04:39:24.820Z,22.07
2018-07-13T04:40:05.350Z,22.14
2018-07-13T04:40:45.871Z,22.15
2018-07-13T04:41:26.392Z,22.17
2018-07-13T04:42:06.937Z,22.31
2018-07-13T04:42:47.450Z,22.35
2018-07-13T04:43:28.002Z,22.47
2018-07-13T04:44:08.507Z,22.58
2018-07-13T04:44:49.018Z,22.55
2018-07-13T04:45:29.576Z,22.62
2018-07-13T04:46:10.104Z,22.57
2018-07-13T04:46:50.643Z,22.6
2018-07-13T04:47:31.169Z,22.61
2018-07-13T04:48:12.498Z,22.49
2018-07-13T04:48:52.211Z,22.55
2018-07-13T04:49:32.725Z,22.49
2018-07-13T04:50:13.284Z,22.49
2018-07-13T04:50:53.793Z,22.54
2018-07-13T04:51:34.311Z,22.65
2018-07-13T04:52:14.849Z,22.61
2018-07-13T04:52:55.347Z,22.67
2018-07-13T04:53:35.894Z,22.77
2018-07-13T04:54:16.401Z,22.82
2018-07-13T04:54:56.928Z,22.67
2018-07-13T04:55:37.442Z,22.79
2018-07-13T04:56:17.964Z,22.65
2018-07-13T04:56:58.472Z,22.61
2018-07-13T04:57:38.994Z,22.62
2018-07-13T04:58:19.517Z,22.65
2018-07-13T04:59:00.050Z,22.58
2018-07-13T04:59:40.572Z,22.57
2018-07-13T05:00:21.101Z,22.75
2018-07-13T05:01:01.617Z,22.83
2018-07-13T05:01:42.153Z,23.15
2018-07-13T05:02:22.678Z,23.2
2018-07-13T05:03:03.201Z,23.13
2018-07-13T05:03:43.717Z,23.15
2018-07-13T05:04:24.251Z,23.17
2018-07-13T05:05:04.767Z,23.4
2018-07-13T05:05:45.292Z,23.42
2018-07-13T05:06:25.827Z,23.47
2018-07-13T05:07:06.349Z,23.38
2018-07-13T05:07:46.890Z,23.46
2018-07-13T05:08:27.406Z,23.39
2018-07-13T05:09:07.918Z,23.38
2018-07-13T05:09:48.461Z,23.35
2018-07-13T05:10:29.015Z,23.32
2018-07-13T05:11:09.540Z,23.23
2018-07-13T05:11:50.067Z,23.22
2018-07-13T05:12:30.594Z,23.12
2018-07-13T05:13:11.123Z,23.05
2018-07-13T05:13:51.651Z,23.01
2018-07-13T05:14:32.166Z,22.98
2018-07-13T05:15:12.700Z,22.76
2018-07-13T05:15:53.249Z,22.75
2018-07-13T05:16:33.781Z,22.82
2018-07-13T05:17:14.307Z,22.72
2018-07-13T05:17:54.811Z,22.62
2018-07-13T05:18:35.363Z,22.67
2018-07-13T05:19:15.894Z,22.67
2018-07-13T05:19:56.417Z,22.65
2018-07-13T05:20:36.964Z,22.65
2018-07-13T05:21:17.583Z,22.7
2018-07-13T05:21:58.108Z,22.79
2018-07-13T05:22:38.602Z,22.82
2018-07-13T05:23:19.127Z,22.77
2018-07-13T05:23:59.645Z,22.77
2018-07-13T05:24:40.186Z,22.82
2018-07-13T05:25:20.722Z,22.8
2018-07-13T05:26:01.268Z,22.79
2018-07-13T05:26:41.785Z,22.8
2018-07-13T05:27:22.309Z,22.73
2018-07-13T05:28:02.841Z,22.8
2018-07-13T05:28:43.362Z,22.77
2018-07-13T05:29:23.891Z,22.85
2018-07-13T05:30:04.566Z,22.83
2018-07-13T05:30:45.137Z,22.83
2018-07-13T05:31:25.612Z,22.75
2018-07-13T05:32:06.135Z,22.76
2018-07-13T05:32:46.667Z,22.88
2018-07-13T05:33:27.194Z,22.82
2018-07-13T05:34:07.737Z,22.91
2018-07-13T05:34:48.254Z,22.88
2018-07-13T05:35:28.801Z,22.97
2018-07-13T05:36:09.364Z,23.05
2018-07-13T05:36:49.892Z,22.92
2018-07-13T05:37:30.415Z,22.97
2018-07-13T05:38:10.963Z,23.02
2018-07-13T05:38:51.478Z,22.98
2018-07-13T05:39:32.006Z,23
2018-07-13T05:40:12.526Z,22.88
2018-07-13T05:40:53.054Z,22.79
2018-07-13T05:41:33.607Z,22.77
2018-07-13T05:42:14.138Z,22.79
2018-07-13T05:42:54.675Z,22.79
2018-07-13T05:43:35.201Z,22.8
2018-07-13T05:44:15.755Z,22.88
2018-07-13T05:44:56.263Z,22.98
2018-07-13T05:45:36.793Z,22.94
2018-07-13T05:46:17.401Z,23.01
2018-07-13T05:46:57.921Z,22.98
2018-07-13T05:47:38.477Z,22.98
2018-07-13T05:48:19.050Z,23
2018-07-13T05:48:59.599Z,22.85
2018-07-13T05:49:40.140Z,22.83
2018-07-13T05:50:20.650Z,23.02
2018-07-13T05:51:01.178Z,23
2018-07-13T05:51:41.742Z,23.01
2018-07-13T05:52:22.254Z,22.98
2018-07-13T05:53:02.772Z,23.13
2018-07-13T05:53:43.287Z,23.1
2018-07-13T05:54:23.810Z,23.13
2018-07-13T05:55:04.324Z,23.1
2018-07-13T05:55:44.852Z,23.13
2018-07-13T05:56:25.402Z,23.16
2018-07-13T05:57:06.513Z,23.15
2018-07-13T05:57:47.065Z,23.04
2018-07-13T05:58:27.585Z,23.15
2018-07-13T05:59:08.119Z,23.28
2018-07-13T05:59:48.641Z,23.28
2018-07-13T06:00:29.180Z,23.33
2018-07-13T06:01:09.699Z,23.4
2018-07-13T06:01:50.234Z,23.46
2018-07-13T06:02:30.779Z,23.58
2018-07-13T06:03:11.315Z,23.87
2018-07-13T06:03:51.846Z,24.08
2018-07-13T06:04:32.361Z,24.24
2018-07-13T06:05:12.883Z,24.45
2018-07-13T06:05:53.412Z,24.65
2018-07-13T06:06:33.930Z,24.96
2018-07-13T06:07:14.457Z,24.87
2018-07-13T06:07:54.984Z,25.09
2018-07-13T06:08:35.519Z,25.23
2018-07-13T06:09:16.046Z,25.32
2018-07-13T06:09:56.559Z,25.3
2018-07-13T06:10:37.052Z,25.45
2018-07-13T06:11:17.579Z,25.65
2018-07-13T06:11:58.106Z,25.65
2018-07-13T06:12:38.641Z,25.8
2018-07-13T06:13:19.170Z,25.8
2018-07-13T06:13:59.692Z,25.77
2018-07-13T06:14:40.252Z,25.75
2018-07-13T06:15:20.758Z,25.79
2018-07-13T06:16:01.297Z,25.77
2018-07-13T06:16:41.832Z,25.77
2018-07-13T06:17:22.349Z,25.76
2018-07-13T06:18:02.896Z,25.72
2018-07-13T06:18:43.421Z,25.79
2018-07-13T06:19:23.948Z,25.83
2018-07-13T06:20:04.479Z,25.85
2018-07-13T06:20:45.010Z,25.92
2018-07-13T06:21:25.540Z,25.88
2018-07-13T06:22:06.068Z,25.99
2018-07-13T06:22:46.587Z,26.12
2018-07-13T06:23:27.114Z,26.26
2018-07-13T06:24:07.656Z,26.21
2018-07-13T06:24:48.259Z,26.33
2018-07-13T06:25:28.722Z,26.21
2018-07-13T06:26:09.221Z,26.2
2018-07-13T06:26:49.757Z,26.28
2018-07-13T06:27:30.322Z,26.29
2018-07-13T06:28:10.882Z,26.32
2018-07-13T06:28:51.349Z,26.37
2018-07-13T06:29:31.929Z,26.4
2018-07-13T06:30:12.505Z,26.36
2018-07-13T06:30:53.015Z,26.39
2018-07-13T06:31:33.673Z,26.4
2018-07-13T06:32:14.121Z,26.44
2018-07-13T06:32:54.602Z,26.44
2018-07-13T06:33:35.135Z,26.51
2018-07-13T06:34:15.687Z,26.57
2018-07-13T06:34:56.142Z,26.52
2018-07-13T06:35:36.625Z,26.58
2018-07-13T06:36:17.447Z,26.55
2018-07-13T06:36:58.009Z,26.58
2018-07-13T06:37:38.484Z,26.58
2018-07-13T06:38:18.982Z,26.58
2018-07-13T06:38:59.492Z,26.7
2018-07-13T06:39:39.997Z,26.69
2018-07-13T06:40:20.536Z,26.69
2018-07-13T06:41:01.110Z,26.58
2018-07-13T06:41:41.705Z,26.65
2018-07-13T06:42:22.228Z,26.52
2018-07-13T06:43:02.763Z,26.52
2018-07-13T06:43:43.288Z,26.54
2018-07-13T06:44:23.814Z,26.52
2018-07-13T06:45:04.323Z,26.48
2018-07-13T06:45:44.851Z,26.54
2018-07-13T06:46:25.368Z,26.5
2018-07-13T06:47:05.893Z,26.47
2018-07-13T06:47:46.408Z,26.58
2018-07-13T06:48:26.911Z,26.55
2018-07-13T06:49:07.434Z,26.65
2018-07-13T06:49:47.963Z,26.82
2018-07-13T06:50:28.561Z,26.77
2018-07-13T06:51:09.028Z,26.94
2018-07-13T06:51:49.527Z,26.76
2018-07-13T06:52:30.036Z,26.92
2018-07-13T06:53:10.562Z,26.89
2018-07-13T06:53:51.081Z,27.04
2018-07-13T06:54:31.638Z,27.04
2018-07-13T06:55:12.179Z,27.07
2018-07-13T06:55:52.707Z,27.14
2018-07-13T06:56:33.225Z,27.18
2018-07-13T06:57:13.772Z,27.02
2018-07-13T06:57:54.482Z,27.07
2018-07-13T06:58:34.991Z,27.02
2018-07-13T06:59:16.189Z,27.06
2018-07-13T06:59:56.755Z,27.07
2018-07-13T07:00:37.314Z,27.04
2018-07-13T07:01:17.809Z,27.04
2018-07-13T07:01:58.895Z,27.02
2018-07-13T07:02:39.429Z,27.06
2018-07-13T07:03:20.046Z,27.07
2018-07-13T07:04:00.576Z,27.04
2018-07-13T07:04:41.027Z,27.1
2018-07-13T07:05:21.555Z,26.99
2018-07-13T07:06:02.090Z,27.12
2018-07-13T07:06:42.613Z,27
2018-07-13T07:07:23.129Z,27.09
2018-07-13T07:08:03.658Z,27.14
2018-07-13T07:08:44.258Z,27.06
2018-07-13T07:09:24.671Z,27.07
2018-07-13T07:10:05.226Z,27.14
2018-07-13T07:10:45.709Z,27.18
2018-07-13T07:11:26.194Z,27.1
2018-07-13T07:12:06.698Z,27.09
2018-07-13T07:12:47.227Z,27.09
2018-07-13T07:13:27.757Z,27.06
2018-07-13T07:14:08.292Z,27.12
2018-07-13T07:14:48.825Z,27.13
2018-07-13T07:15:29.341Z,27.13
2018-07-13T07:16:09.881Z,27.13
2018-07-13T07:16:50.392Z,27.13
2018-07-13T07:18:55.177Z,27.06
2018-07-13T07:19:35.683Z,27.14
2018-07-13T07:20:16.211Z,27.21
2018-07-13T07:20:56.745Z,27.34
2018-07-13T07:21:37.279Z,27.32
2018-07-13T07:22:17.916Z,27.24
2018-07-13T07:22:58.405Z,27.27
2018-07-13T07:23:38.927Z,27.24
2018-07-13T07:24:19.503Z,27.29
2018-07-13T07:24:59.966Z,27.28
2018-07-13T07:25:40.497Z,27.24
2018-07-13T07:26:21.043Z,27.28
2018-07-13T07:27:01.557Z,27.21
2018-07-13T07:27:42.103Z,27.31
2018-07-13T07:28:22.626Z,27.31
2018-07-13T07:29:03.146Z,27.24
2018-07-13T07:29:43.677Z,27.28
2018-07-13T07:30:24.212Z,27.27
2018-07-13T07:31:04.737Z,27.28
2018-07-13T07:31:45.344Z,27.36
2018-07-13T07:32:25.887Z,27.24
2018-07-13T07:33:06.453Z,27.25
2018-07-13T07:33:47.579Z,27.21
2018-07-13T07:34:27.464Z,27.25
2018-07-13T07:35:07.929Z,27.32
2018-07-13T07:35:48.401Z,27.25
2018-07-13T07:36:28.943Z,27.25
2018-07-13T07:37:09.413Z,27.12
2018-07-13T07:37:49.957Z,27.25
2018-07-13T07:38:30.990Z,27.31
2018-07-13T07:39:11.444Z,27.37
2018-07-13T07:39:51.924Z,27.39
2018-07-13T07:40:32.473Z,27.37
2018-07-13T07:41:13.016Z,27.32
2018-07-13T07:41:53.533Z,27.28
2018-07-13T07:42:34.079Z,27.17
2018-07-13T07:43:14.629Z,27.17
2018-07-13T07:43:55.459Z,27.18
2018-07-13T07:44:35.928Z,27.24
2018-07-13T07:45:16.456Z,27.03
2018-07-13T07:45:57.061Z,27.13
2018-07-13T07:46:37.537Z,27.06
2018-07-13T07:47:18.169Z,27.02
2018-07-13T07:47:58.616Z,26.84
2018-07-13T07:48:39.140Z,26.91
2018-07-13T07:49:19.673Z,26.69
2018-07-13T07:50:00.353Z,26.88
2018-07-13T07:50:40.881Z,26.92
2018-07-13T07:51:21.388Z,27.04
2018-07-13T07:52:01.924Z,27.04
2018-07-13T07:52:42.454Z,27.14
2018-07-13T07:53:22.996Z,27.28
2018-07-13T07:54:03.522Z,27.27
2018-07-13T07:54:44.053Z,27.24
2018-07-13T07:55:24.553Z,27.31
2018-07-13T07:56:05.057Z,27.36
2018-07-13T07:56:45.594Z,27.31
2018-07-13T07:57:26.324Z,27.43
2018-07-13T07:58:07.139Z,27.43
2018-07-13T07:58:47.805Z,27.51
2018-07-13T07:59:28.140Z,27.49
2018-07-13T08:00:08.606Z,27.54
2018-07-13T08:00:49.122Z,27.55
2018-07-13T08:01:29.712Z,27.59
2018-07-13T08:02:10.206Z,27.6
2018-07-13T08:02:50.807Z,27.67
2018-07-13T08:03:31.268Z,27.57
2018-07-13T08:04:11.760Z,27.49
2018-07-13T08:04:52.312Z,27.54
2018-07-13T08:05:32.804Z,27.6
2018-07-13T08:06:13.422Z,27.54
2018-07-13T08:06:54.211Z,27.7
2018-07-13T08:07:34.355Z,27.57
2018-07-13T08:08:14.908Z,27.5
2018-07-13T08:08:55.400Z,27.47
2018-07-13T08:09:35.943Z,27.47
2018-07-13T08:10:16.459Z,27.62
2018-07-13T08:10:56.970Z,27.67
2018-07-13T08:11:37.466Z,27.59
2018-07-13T08:12:18.001Z,27.63
2018-07-13T08:12:58.495Z,27.66
2018-07-13T08:13:39.187Z,27.7
2018-07-13T08:14:19.780Z,27.57
2018-07-13T08:15:00.064Z,27.49
2018-07-13T08:15:40.561Z,27.39
2018-07-13T08:16:21.105Z,27.43
2018-07-13T08:17:01.598Z,27.5
2018-07-13T08:17:42.066Z,27.4
2018-07-13T08:18:22.593Z,27.19
2018-07-13T08:19:03.130Z,27.25
2018-07-13T08:19:43.777Z,27.27
2018-07-13T08:20:24.138Z,27.29
2018-07-13T08:21:04.651Z,27.37
2018-07-13T08:21:45.458Z,27.17
2018-07-13T08:22:25.960Z,27.02
2018-07-13T08:23:06.440Z,27
2018-07-13T08:23:46.944Z,27.1
2018-07-13T08:24:27.426Z,27.24
2018-07-13T08:25:07.965Z,27.22
2018-07-13T08:25:48.454Z,27.31
2018-07-13T08:26:28.977Z,27.13
2018-07-13T08:27:09.480Z,27.12
2018-07-13T08:27:49.978Z,27.02
2018-07-13T08:28:30.505Z,26.95
2018-07-13T08:29:11.052Z,27.02
2018-07-13T08:29:51.607Z,27.06
2018-07-13T08:30:32.136Z,27.18
2018-07-13T08:31:12.648Z,27.21
2018-07-13T08:31:53.187Z,27.25
2018-07-13T08:32:33.707Z,27.19
2018-07-13T08:33:14.256Z,27.17
2018-07-13T08:33:55.313Z,27.18
2018-07-13T08:34:35.797Z,27.06
2018-07-13T08:35:16.270Z,27.17
2018-07-13T08:35:56.848Z,27.27
2018-07-13T08:36:37.306Z,27.06
2018-07-13T08:37:43.870Z,27.06
2018-07-13T08:38:24.369Z,27.09
2018-07-13T08:39:04.866Z,27
2018-07-13T08:39:45.604Z,27.02
2018-07-13T08:40:26.158Z,27.06
2018-07-13T08:41:06.646Z,27.24
2018-07-13T08:41:47.612Z,27.22
2018-07-13T08:42:28.097Z,27.03
2018-07-13T08:43:08.633Z,27.04
2018-07-13T08:43:49.159Z,27.09
2018-07-13T08:44:29.700Z,26.97
2018-07-13T08:45:10.158Z,26.95
2018-07-13T08:45:50.690Z,27.09
2018-07-13T08:46:31.206Z,26.91